Portada
METAR-TAF:

METAR-TAF

Aeroports :

Islamabad, Pakistan

latitud: 33-32-57N, longitud: 072-49-32E, altitud: 537 m

Observació

L'informe es va fer fa 39 minuts, a les 18:30 UTC
Vent 4 kt del Nord-Est
Temperatura 8°C
Humitat 81%
Pressió 1016 hPa
Visibilitat: 4000 m
fum

METAR: OPIS 041830Z 05004KT 4000 FU NSC 08/05 Q1016 NOSIG

Hora: 00:09 (19:09 UTC)

Pronòstic

L'informe es va fer fa 3 hores i 24 minuts, a les 15:45 UTC
Pronòstic vàlid del 04 a les 18 UTC al 05 a les 24 UTC
Vent 8 kt del Nord-Oest
Visibilitat: 6000 m
Temporalment
l' 04 a les 21 UTC al 05 a les 04 UTC
Vent 2 kt del Oest
Visibilitat: 2000 m
boirina
Temporalment
l' 05 a les 06 UTC al 05 a les 09 UTC
Vent 10 kt del Oest amb ràfegues de 20 kt
Temporalment
l' 05 a les 21 UTC al 06 a les 00 UTC
Vent 2 kt del Oest
Visibilitat: 2000 m
boirina

TAF: OPIS 041545Z 0418/0524 31008KT 6000 NSC TEMPO 0421/0504 27002KT 2000 BR TEMPO 0506/0509 27010G20KT TEMPO 0521/0600 27002KT 2000 BR

Observacions i pronòstics meteorològics de més de 4000 aeroports (METAR i TAF).

Les estacions disponibles són els punts grocs i vermells al mapa.

Posi el ratolí al punt desitjat per veure el nom de l'estació.

Feu clic per veure les observacions i els pronòstics meteorològics.

Per canviar el mapa: feu clic els botons verds amb una creu de color negre per apropar; al botó verd amb un guió per allunyar la imatge; o en les fletxes verdes per a mapes adjacents.


METAR-TAF: